WUH weather

Wuhan Tianhe International Airport
Wuhan, Hubei Province, China

Public forecast

Using degrees Celsius for public forecast. Weather courtesy of forecast.io.

Current aviation weather report (METAR) for Wuhan Tianhe International Airport

Retrieved 2020/05/30 12:00 UTC (49 minutes ago):

ZHHH 301200Z 21002MPS CAVOK 26/20 Q1008 NOSIG

Aviation forecast (TAF) for Wuhan Tianhe International Airport

Retrieved 2020/05/30 12:03 UTC (46 minutes ago):

TAF ZHHH 300901Z 3012/3112 22003MPS 6000 NSC TX30/3107Z TN20/3022Z